Time;durP1;ratioP1;P1;durP2;ratioP2;P2;SDS_P1;SDS_P2;PMS_P1;PMS_P2;Temp;Humidity;BMP_temperature;BMP_pressure;BME280_temperature;BME280_humidity;BME280_pressure;Samples;Min_cycle;Max_cycle;Signal;HPM_P1;HPM_P2
2021/03/11 00:01:02;;;;;;;;;;;6.90;99.90;;;;;;13116033;22;20354;-87
2021/03/11 00:06:04;;;;;;;;;;;6.20;99.90;;;;;;13122157;22;20335;-87
2021/03/11 00:11:06;;;;;;;;;;;6.20;99.90;;;;;;13155577;22;19918;-87
2021/03/11 00:16:07;;;;;;;;;;;6.20;99.90;;;;;;13157693;22;19918;-87
2021/03/11 00:21:09;;;;;;;;;;;6.30;99.90;;;;;;13140286;22;19948;-88
2021/03/11 00:26:11;;;;;;;;;;;7.90;99.90;;;;;;13156936;22;19918;-88
2021/03/11 00:31:12;;;;;;;;;;;6.30;99.90;;;;;;13128289;22;20315;-87
2021/03/11 00:36:13;;;;;;;;;;;7.00;99.90;;;;;;13154775;22;20005;-87
2021/03/11 00:41:15;;;;;;;;;;;6.60;99.90;;;;;;13129782;22;19918;-88
2021/03/11 00:46:16;;;;;;;;;;;7.10;99.90;;;;;;13128650;22;19960;-87
2021/03/11 00:51:17;;;;;;;;;;;6.40;99.90;;;;;;13182119;22;20320;-87
2021/03/11 00:56:28;;;;;;;;;;;6.90;99.90;;;;;;13133140;22;19918;-87
2021/03/11 01:01:30;;;;;;;;;;;6.50;99.90;;;;;;13128517;22;20239;-87
2021/03/11 01:06:32;;;;;;;;;;;6.60;99.90;;;;;;13128914;22;19918;-88
2021/03/11 01:11:34;;;;;;;;;;;6.50;99.90;;;;;;13154502;22;19997;-87
2021/03/11 01:16:35;;;;;;;;;;;6.50;99.90;;;;;;13185658;22;19961;-87
2021/03/11 01:21:36;;;;;;;;;;;6.60;99.90;;;;;;13054225;22;19946;-91
2021/03/11 01:26:50;;;;;;;;;;;6.60;99.90;;;;;;13054936;22;19986;-91
2021/03/11 01:31:51;;;;;;;;;;;6.60;99.90;;;;;;13054719;22;20305;-90
2021/03/11 01:36:52;;;;;;;;;;;8.30;99.90;;;;;;13053435;22;20324;-90
2021/03/11 01:41:53;;;;;;;;;;;8.70;99.90;;;;;;13055306;22;19929;-91
2021/03/11 01:46:55;;;;;;;;;;;6.90;99.90;;;;;;13052783;22;19929;-92
2021/03/11 01:51:56;;;;;;;;;;;6.80;99.90;;;;;;13053928;22;19919;-90
2021/03/11 01:57:11;;;;;;;;;;;6.90;99.90;;;;;;13054420;22;19919;-91
2021/03/11 02:02:13;;;;;;;;;;;6.80;99.90;;;;;;13029083;22;19923;-91
2021/03/11 02:07:14;;;;;;;;;;;6.90;99.90;;;;;;13080278;22;20236;-91
2021/03/11 02:12:18;;;;;;;;;;;8.40;99.90;;;;;;13055166;22;19939;-92
2021/03/11 02:17:24;;;;;;;;;;;6.90;99.90;;;;;;13080670;22;19919;-92
2021/03/11 02:22:25;;;;;;;;;;;6.90;99.90;;;;;;13054242;22;19919;-92
2021/03/11 02:27:37;;;;;;;;;;;6.90;99.90;;;;;;13079504;22;19919;-92
2021/03/11 02:32:41;;;;;;;;;;;7.00;99.90;;;;;;13079798;22;19994;-91
2021/03/11 02:37:48;;;;;;;;;;;8.00;99.90;;;;;;13053796;22;19969;-90
2021/03/11 02:42:51;;;;;;;;;;;7.10;99.90;;;;;;13053266;22;19926;-91
2021/03/11 02:47:53;;;;;;;;;;;7.00;99.90;;;;;;13054718;22;19919;-90
2021/03/11 02:52:55;;;;;;;;;;;8.10;99.90;;;;;;13053227;22;20006;-91
2021/03/11 02:57:56;;;;;;;;;;;7.90;99.90;;;;;;13027570;22;19926;-90
2021/03/11 03:02:58;;;;;;;;;;;8.90;99.90;;;;;;13027486;22;19993;-90
2021/03/11 03:08:00;;;;;;;;;;;8.40;99.90;;;;;;13054117;22;19942;-91
2021/03/11 03:13:04;;;;;;;;;;;8.30;99.90;;;;;;13053782;22;19997;-91
2021/03/11 03:18:06;;;;;;;;;;;7.10;99.90;;;;;;13053911;22;19918;-90
2021/03/11 03:23:07;;;;;;;;;;;7.20;99.90;;;;;;13027225;22;19919;-91
2021/03/11 03:28:17;;;;;;;;;;;7.20;99.90;;;;;;13053314;22;19926;-91
2021/03/11 03:33:19;;;;;;;;;;;7.40;99.90;;;;;;13049761;22;19958;-90
2021/03/11 03:38:20;;;;;;;;;;;7.40;99.90;;;;;;13050750;22;19946;-91
2021/03/11 03:43:22;;;;;;;;;;;7.60;99.90;;;;;;13025459;22;20332;-91
2021/03/11 03:48:43;;;;;;;;;;;9.00;99.90;;;;;;13050073;22;20364;-91
2021/03/11 03:54:08;;;;;;;;;;;7.50;99.90;;;;;;13051326;22;20340;-90
2021/03/11 03:59:11;;;;;;;;;;;7.50;99.90;;;;;;13010550;22;19993;-90
2021/03/11 04:04:13;;;;;;;;;;;7.50;99.90;;;;;;13052903;22;19943;-90
2021/03/11 04:09:14;;;;;;;;;;;8.10;99.90;;;;;;13053917;22;19969;-91
2021/03/11 04:14:16;;;;;;;;;;;7.50;99.90;;;;;;13025901;22;19947;-91
2021/03/11 04:19:19;;;;;;;;;;;7.50;99.90;;;;;;13056214;22;19972;-91
2021/03/11 04:24:20;;;;;;;;;;;7.60;99.90;;;;;;13027297;22;19954;-92
2021/03/11 04:29:21;;;;;;;;;;;7.50;99.90;;;;;;13052292;22;20328;-91
2021/03/11 04:34:23;;;;;;;;;;;7.60;99.90;;;;;;13000947;22;20244;-91
2021/03/11 04:39:24;;;;;;;;;;;7.70;99.90;;;;;;13052115;22;19923;-91
2021/03/11 04:44:26;;;;;;;;;;;7.70;99.90;;;;;;13027631;22;19918;-91
2021/03/11 04:49:29;;;;;;;;;;;7.70;99.90;;;;;;13054993;22;20018;-90
2021/03/11 04:54:31;;;;;;;;;;;7.80;99.90;;;;;;13056227;22;19919;-92
2021/03/11 04:59:32;;;;;;;;;;;7.70;99.90;;;;;;13031081;22;19945;-90
2021/03/11 05:04:34;;;;;;;;;;;7.80;99.90;;;;;;13058145;22;19919;-91
2021/03/11 05:09:35;;;;;;;;;;;7.90;99.90;;;;;;13056797;22;20001;-90
2021/03/11 05:14:36;;;;;;;;;;;8.00;99.90;;;;;;13005345;22;19947;-91
2021/03/11 05:19:39;;;;;;;;;;;8.10;99.90;;;;;;13057469;22;19926;-90
2021/03/11 05:24:40;;;;;;;;;;;8.20;99.90;;;;;;13029638;22;19919;-91
2021/03/11 05:29:53;;;;;;;;;;;8.20;99.90;;;;;;13009709;22;20324;-91
2021/03/11 05:34:54;;;;;;;;;;;8.10;99.90;;;;;;13004943;22;19926;-91
2021/03/11 05:39:58;;;;;;;;;;;8.30;99.90;;;;;;13005145;22;19990;-91
2021/03/11 05:44:59;;;;;;;;;;;8.30;99.90;;;;;;13053568;22;19934;-91
2021/03/11 05:50:02;;;;;;;;;;;8.30;99.90;;;;;;13027644;22;19953;-91
2021/03/11 05:55:04;;;;;;;;;;;8.40;99.90;;;;;;13053495;22;20430;-90
2021/03/11 06:00:16;;;;;;;;;;;8.50;99.90;;;;;;13053631;22;20292;-89
2021/03/11 06:05:20;;;;;;;;;;;8.50;99.90;;;;;;13055271;22;19998;-91
2021/03/11 06:10:22;;;;;;;;;;;9.00;99.90;;;;;;13055102;22;19923;-91
2021/03/11 06:15:27;;;;;;;;;;;8.70;99.90;;;;;;13054484;22;20201;-91
2021/03/11 06:20:28;;;;;;;;;;;9.60;99.90;;;;;;13054222;22;19990;-91
2021/03/11 06:25:29;;;;;;;;;;;8.70;99.90;;;;;;13003179;22;19934;-91
2021/03/11 06:30:35;;;;;;;;;;;9.80;99.90;;;;;;13005044;22;19919;-91
2021/03/11 06:35:37;;;;;;;;;;;8.80;99.90;;;;;;13028564;22;19941;-91
2021/03/11 06:40:39;;;;;;;;;;;8.90;99.90;;;;;;13003845;22;19923;-91
2021/03/11 06:45:41;;;;;;;;;;;8.80;99.90;;;;;;13001652;22;19994;-91
2021/03/11 06:50:42;;;;;;;;;;;9.10;99.90;;;;;;13052640;22;19919;-90
2021/03/11 06:55:43;;;;;;;;;;;9.40;99.90;;;;;;13027997;22;20240;-91
2021/03/11 07:01:04;;;;;;;;;;;9.00;99.90;;;;;;13031048;22;19919;-90
2021/03/11 07:06:06;;;;;;;;;;;9.00;99.90;;;;;;13053787;22;19920;-91
2021/03/11 07:11:07;;;;;;;;;;;9.00;99.90;;;;;;13053494;22;19950;-91
2021/03/11 07:16:14;;;;;;;;;;;9.10;99.90;;;;;;13003927;22;19919;-90
2021/03/11 07:51:24;;;;;;;;;;;;;;;;;;13178627;22;19919;-88
2021/03/11 07:56:26;;;;;;;;;;;10.90;99.90;;;;;;13181098;22;19922;-88
2021/03/11 08:01:52;;;;;;;;;;;11.40;99.90;;;;;;13182117;22;19918;-88
2021/03/11 08:07:15;;;;;;;;;;;12.20;99.90;;;;;;13181633;22;19950;-88
2021/03/11 08:12:30;;;;;;;;;;;12.40;99.90;;;;;;13180168;22;19922;-89
2021/03/11 08:17:50;;;;;;;;;;;13.00;99.90;;;;;;13180208;22;19933;-88
2021/03/11 08:22:52;;;;;;;;;;;12.20;99.90;;;;;;13183798;22;19918;-87
2021/03/11 08:27:54;;;;;;;;;;;12.10;99.90;;;;;;13185137;22;20289;-88
2021/03/11 08:32:55;;;;;;;;;;;13.10;99.90;;;;;;13184643;22;19950;-88
2021/03/11 08:37:57;;;;;;;;;;;13.00;99.90;;;;;;13158919;22;19968;-88
2021/03/11 08:42:58;;;;;;;;;;;13.50;99.90;;;;;;13183749;22;20243;-88
2021/03/11 08:48:16;;;;;;;;;;;13.40;99.90;;;;;;13184573;22;19977;-88
2021/03/11 08:53:50;;;;;;;;;;;13.30;99.90;;;;;;13184519;22;19971;-88
2021/03/11 08:58:53;;;;;;;;;;;12.60;99.90;;;;;;13135253;22;19971;-90
2021/03/11 09:03:58;;;;;;;;;;;13.50;99.90;;;;;;13185042;22;20327;-90
2021/03/11 09:08:59;;;;;;;;;;;13.40;99.90;;;;;;13186822;22;19918;-91
2021/03/11 09:14:07;;;;;;;;;;;13.40;99.90;;;;;;13158643;22;20277;-90
2021/03/11 09:19:09;;;;;;;;;;;13.50;99.90;;;;;;13183339;22;19946;-91
2021/03/11 09:24:20;;;;;;;;;;;13.60;99.90;;;;;;13182120;22;20334;-89
2021/03/11 09:29:22;;;;;;;;;;;13.10;99.90;;;;;;13181457;22;19993;-89
2021/03/11 09:34:24;;;;;;;;;;;14.00;99.90;;;;;;13181158;22;20021;-90
2021/03/11 09:39:25;;;;;;;;;;;14.40;99.60;;;;;;13182676;22;19922;-90
2021/03/11 09:44:27;;;;;;;;;;;13.00;99.90;;;;;;13155018;22;20362;-89
2021/03/11 09:49:28;;;;;;;;;;;13.00;99.90;;;;;;13182303;22;19918;-91
2021/03/11 09:54:29;;;;;;;;;;;12.70;99.90;;;;;;13182036;22;19922;-91
2021/03/11 09:59:31;;;;;;;;;;;12.60;99.90;;;;;;13180172;22;19929;-91
2021/03/11 10:04:34;;;;;;;;;;;12.60;99.90;;;;;;13181162;22;19989;-90
2021/03/11 10:09:40;;;;;;;;;;;12.60;99.90;;;;;;13181648;22;20056;-91
2021/03/11 10:14:43;;;;;;;;;;;12.50;99.90;;;;;;13181851;22;19971;-91
2021/03/11 10:19:46;;;;;;;;;;;12.50;99.90;;;;;;13155528;22;19929;-91
2021/03/11 10:24:49;;;;;;;;;;;12.50;99.90;;;;;;13154619;22;19967;-90
2021/03/11 10:30:07;;;;;;;;;;;12.20;99.90;;;;;;13181464;22;19918;-91
2021/03/11 10:35:09;;;;;;;;;;;12.20;99.90;;;;;;13182804;22;19922;-91
2021/03/11 10:40:12;;;;;;;;;;;12.20;99.90;;;;;;13182162;22;19981;-93
2021/03/11 10:45:18;;;;;;;;;;;12.00;99.90;;;;;;13180301;22;20335;-91
2021/03/11 10:50:20;;;;;;;;;;;12.00;99.90;;;;;;13180338;22;20290;-90
2021/03/11 10:55:23;;;;;;;;;;;12.10;99.90;;;;;;13181370;22;19989;-91
2021/03/11 11:00:28;;;;;;;;;;;11.90;99.90;;;;;;13180337;22;19922;-92
2021/03/11 11:05:31;;;;;;;;;;;12.00;99.90;;;;;;13181312;22;19993;-92
2021/03/11 11:10:33;;;;;;;;;;;12.00;99.90;;;;;;13180347;22;20005;-92
2021/03/11 11:15:35;;;;;;;;;;;11.80;99.90;;;;;;13180418;22;19922;-90
2021/03/11 11:20:36;;;;;;;;;;;12.00;99.90;;;;;;13153766;22;19941;-91
2021/03/11 11:25:38;;;;;;;;;;;12.20;99.90;;;;;;13179509;22;20317;-91
2021/03/11 11:30:40;;;;;;;;;;;12.00;99.90;;;;;;13179798;22;19918;-91
2021/03/11 11:35:42;;;;;;;;;;;11.90;99.90;;;;;;13180929;22;19919;-90
2021/03/11 11:40:43;;;;;;;;;;;11.80;99.90;;;;;;13152982;22;19997;-90
2021/03/11 11:45:45;;;;;;;;;;;12.00;99.90;;;;;;13153834;22;19925;-91
2021/03/11 11:50:47;;;;;;;;;;;12.00;99.90;;;;;;13180222;22;19944;-91
2021/03/11 11:55:48;;;;;;;;;;;12.10;99.90;;;;;;13153366;22;20285;-91
2021/03/11 12:00:50;;;;;;;;;;;12.20;99.90;;;;;;13151959;22;20347;-90
2021/03/11 12:05:51;;;;;;;;;;;12.40;99.90;;;;;;13178821;22;19918;-91
2021/03/11 12:10:55;;;;;;;;;;;12.20;99.90;;;;;;13178898;22;19925;-91
2021/03/11 12:15:56;;;;;;;;;;;12.10;99.90;;;;;;13153479;22;20312;-91
2021/03/11 12:20:59;;;;;;;;;;;12.00;99.90;;;;;;13179566;22;20330;-90
2021/03/11 12:26:01;;;;;;;;;;;11.40;99.90;;;;;;13179239;22;19963;-90
2021/03/11 12:31:03;;;;;;;;;;;12.10;99.90;;;;;;13178407;22;20384;-90
2021/03/11 12:36:06;;;;;;;;;;;12.10;99.80;;;;;;13179187;22;19918;-90
2021/03/11 12:41:08;;;;;;;;;;;12.00;99.90;;;;;;13178706;22;19922;-89
2021/03/11 12:46:10;;;;;;;;;;;12.00;99.90;;;;;;13178184;22;19919;-90
2021/03/11 12:51:11;;;;;;;;;;;12.00;99.90;;;;;;13179423;22;20005;-89
2021/03/11 12:56:13;;;;;;;;;;;11.70;99.90;;;;;;13178055;22;19922;-90
2021/03/11 13:01:14;;;;;;;;;;;12.40;98.30;;;;;;13179732;22;19918;-91
2021/03/11 13:06:16;;;;;;;;;;;12.20;98.20;;;;;;13180633;22;19945;-91
2021/03/11 13:11:18;;;;;;;;;;;13.20;98.40;;;;;;13157517;22;19919;-93
2021/03/11 13:16:19;;;;;;;;;;;12.50;98.50;;;;;;13187949;22;19945;-91
2021/03/11 13:21:21;;;;;;;;;;;12.30;98.80;;;;;;13142624;22;19925;-88
2021/03/11 13:26:22;;;;;;;;;;;12.10;98.80;;;;;;13155281;22;19985;-89
2021/03/11 13:31:23;;;;;;;;;;;12.20;98.90;;;;;;13155882;22;19924;-89
2021/03/11 13:36:25;;;;;;;;;;;12.10;99.80;;;;;;13130440;22;20285;-90
2021/03/11 13:41:26;;;;;;;;;;;12.10;99.50;;;;;;13184751;22;19985;-89
2021/03/11 13:46:27;;;;;;;;;;;12.90;97.10;;;;;;13129304;22;20306;-89
2021/03/11 13:51:29;;;;;;;;;;;12.90;97.90;;;;;;13158607;22;19925;-88
2021/03/11 13:56:31;;;;;;;;;;;12.70;95.70;;;;;;13155267;22;20289;-90
2021/03/11 14:01:32;;;;;;;;;;;12.60;96.70;;;;;;13181570;22;19981;-89
2021/03/11 14:06:35;;;;;;;;;;;12.50;97.40;;;;;;13153831;22;19929;-89
2021/03/11 14:11:36;;;;;;;;;;;12.30;96.70;;;;;;13154068;22;19922;-89
2021/03/11 14:16:37;;;;;;;;;;;12.40;95.00;;;;;;13153764;22;19984;-90
2021/03/11 14:21:40;;;;;;;;;;;12.50;96.00;;;;;;13129460;22;19972;-90
2021/03/11 14:26:42;;;;;;;;;;;12.40;96.90;;;;;;13128583;22;19967;-90
2021/03/11 14:31:44;;;;;;;;;;;12.10;97.70;;;;;;13127383;22;19952;-90
2021/03/11 14:36:50;;;;;;;;;;;12.10;97.20;;;;;;13129930;22;20238;-89
2021/03/11 14:41:51;;;;;;;;;;;12.10;98.40;;;;;;13182275;22;20017;-90
2021/03/11 14:46:53;;;;;;;;;;;12.40;98.30;;;;;;13153796;22;20411;-90
2021/03/11 14:51:59;;;;;;;;;;;12.40;97.50;;;;;;13154063;22;20346;-91
2021/03/11 14:57:01;;;;;;;;;;;12.30;97.00;;;;;;13152782;22;20224;-89
2021/03/11 15:02:02;;;;;;;;;;;12.20;96.90;;;;;;13128042;22;19944;-91
2021/03/11 15:07:14;;;;;;;;;;;12.20;96.10;;;;;;13131588;22;19952;-88
2021/03/11 15:12:25;;;;;;;;;;;12.20;96.60;;;;;;13130324;22;19954;-88
2021/03/11 15:17:27;;;;;;;;;;;12.20;95.40;;;;;;13180978;22;19937;-88
2021/03/11 15:22:28;;;;;;;;;;;12.00;95.70;;;;;;13152368;22;19918;-88
2021/03/11 15:27:30;;;;;;;;;;;12.10;95.60;;;;;;13153251;22;19925;-89
2021/03/11 15:32:31;;;;;;;;;;;11.90;96.00;;;;;;13123855;22;20323;-87
2021/03/11 15:37:39;;;;;;;;;;;11.80;97.40;;;;;;13153801;22;19922;-88
2021/03/11 15:42:41;;;;;;;;;;;11.40;99.90;;;;;;13151968;22;20250;-88
2021/03/11 15:47:42;;;;;;;;;;;11.00;99.90;;;;;;13151674;22;19949;-87
2021/03/11 15:52:45;;;;;;;;;;;10.70;99.90;;;;;;13177051;22;19922;-88
2021/03/11 15:57:47;;;;;;;;;;;9.50;99.90;;;;;;13125705;22;19973;-89
2021/03/11 16:02:48;;;;;;;;;;;8.70;99.90;;;;;;13151961;22;20000;-90
2021/03/11 16:08:02;;;;;;;;;;;8.50;99.90;;;;;;13151930;22;19926;-90
2021/03/11 16:13:04;;;;;;;;;;;8.20;99.90;;;;;;13122962;22;19969;-90
2021/03/11 16:18:06;;;;;;;;;;;8.10;99.90;;;;;;13149239;22;19922;-90
2021/03/11 16:23:07;;;;;;;;;;;8.10;99.90;;;;;;13151206;22;19926;-90
2021/03/11 16:28:09;;;;;;;;;;;8.50;99.90;;;;;;13151363;22;19989;-90
2021/03/11 16:33:11;;;;;;;;;;;8.10;99.90;;;;;;13151537;22;20012;-90
2021/03/11 16:38:26;;;;;;;;;;;8.90;99.90;;;;;;13135501;22;19922;-89
2021/03/11 16:43:27;;;;;;;;;;;7.60;99.90;;;;;;13155571;22;19922;-89
2021/03/11 16:48:29;;;;;;;;;;;8.30;99.90;;;;;;13130291;22;19918;-90
2021/03/11 16:53:30;;;;;;;;;;;8.80;99.90;;;;;;13131784;22;20323;-90
2021/03/11 16:58:32;;;;;;;;;;;8.50;99.90;;;;;;13131730;22;19997;-91
2021/03/11 17:03:33;;;;;;;;;;;9.10;99.90;;;;;;13158505;22;19933;-91
2021/03/11 17:08:50;;;;;;;;;;;8.60;99.90;;;;;;13139333;22;19918;-92
2021/03/11 17:13:52;;;;;;;;;;;8.60;99.90;;;;;;13158386;22;19971;-90
2021/03/11 17:18:54;;;;;;;;;;;8.80;99.90;;;;;;13131937;22;20206;-91
2021/03/11 17:23:56;;;;;;;;;;;8.50;99.90;;;;;;13132597;22;19934;-90
2021/03/11 17:28:57;;;;;;;;;;;8.50;99.90;;;;;;13127051;22;19965;-90
2021/03/11 17:33:59;;;;;;;;;;;8.50;99.90;;;;;;13128439;22;19996;-90
2021/03/11 17:39:11;;;;;;;;;;;8.40;99.90;;;;;;13131548;22;19926;-91
2021/03/11 17:44:18;;;;;;;;;;;8.40;99.90;;;;;;13157502;22;19922;-90
2021/03/11 17:49:19;;;;;;;;;;;8.30;99.90;;;;;;13155938;22;19989;-90
2021/03/11 17:54:21;;;;;;;;;;;8.50;99.90;;;;;;13185118;22;19959;-91
2021/03/11 17:59:22;;;;;;;;;;;8.80;99.90;;;;;;13182258;22;19946;-91
2021/03/11 18:04:24;;;;;;;;;;;8.60;99.90;;;;;;13129129;22;20001;-90
2021/03/11 18:09:34;;;;;;;;;;;8.70;99.90;;;;;;13183639;22;19989;-90
2021/03/11 18:14:36;;;;;;;;;;;8.00;99.90;;;;;;13156712;22;19928;-90
2021/03/11 18:19:38;;;;;;;;;;;7.90;99.90;;;;;;13129915;22;20295;-89
2021/03/11 18:24:39;;;;;;;;;;;8.10;99.90;;;;;;13155531;22;19945;-90
2021/03/11 18:29:41;;;;;;;;;;;8.60;99.90;;;;;;13155447;22;19997;-90
2021/03/11 18:34:42;;;;;;;;;;;9.10;99.90;;;;;;13155457;22;19918;-90
2021/03/11 18:39:56;;;;;;;;;;;9.10;99.90;;;;;;13156677;22;19918;-89
2021/03/11 18:44:58;;;;;;;;;;;8.10;99.90;;;;;;13154771;22;19977;-91
2021/03/11 18:49:59;;;;;;;;;;;8.20;99.90;;;;;;13128867;22;19989;-91
2021/03/11 18:55:00;;;;;;;;;;;8.10;99.90;;;;;;13153634;22;20013;-90
2021/03/11 19:00:06;;;;;;;;;;;8.10;99.90;;;;;;13125581;22;19985;-90
2021/03/11 19:05:09;;;;;;;;;;;8.00;99.90;;;;;;13153003;22;19954;-90
2021/03/11 19:10:20;;;;;;;;;;;8.10;99.90;;;;;;13155671;22;20381;-90
2021/03/11 19:15:22;;;;;;;;;;;8.00;99.90;;;;;;13127663;22;19925;-89
2021/03/11 19:20:25;;;;;;;;;;;8.00;99.90;;;;;;13085197;22;19923;-88
2021/03/11 19:25:27;;;;;;;;;;;7.80;99.90;;;;;;13080750;22;20026;-89
2021/03/11 19:30:30;;;;;;;;;;;7.70;99.90;;;;;;13080368;22;19933;-88
2021/03/11 19:35:34;;;;;;;;;;;8.20;99.90;;;;;;13080682;22;19982;-89
2021/03/11 19:40:46;;;;;;;;;;;7.60;99.90;;;;;;13058097;22;19952;-87
2021/03/11 19:45:49;;;;;;;;;;;7.50;99.90;;;;;;13106139;22;19934;-88
2021/03/11 19:50:51;;;;;;;;;;;7.40;99.90;;;;;;13079953;22;20005;-89
2021/03/11 19:55:53;;;;;;;;;;;7.30;99.90;;;;;;13079263;22;20374;-89
2021/03/11 20:00:54;;;;;;;;;;;7.60;99.90;;;;;;13107451;22;19989;-88
2021/03/11 20:05:56;;;;;;;;;;;7.20;99.90;;;;;;13105433;22;19923;-89
2021/03/11 20:11:08;;;;;;;;;;;7.50;99.90;;;;;;13081945;22;19930;-89
2021/03/11 20:16:09;;;;;;;;;;;7.10;99.90;;;;;;13105283;22;20339;-89
2021/03/11 20:21:11;;;;;;;;;;;7.40;99.90;;;;;;13108956;22;19965;-88
2021/03/11 20:26:14;;;;;;;;;;;7.70;99.90;;;;;;13083548;22;19961;-89
2021/03/11 20:31:16;;;;;;;;;;;7.00;99.90;;;;;;13111085;22;19961;-89
2021/03/11 20:36:17;;;;;;;;;;;7.10;99.90;;;;;;13084014;22;19923;-88
2021/03/11 20:41:36;;;;;;;;;;;7.00;99.90;;;;;;13110203;22;19919;-88
2021/03/11 20:46:38;;;;;;;;;;;7.00;99.90;;;;;;13082728;22;20414;-88
2021/03/11 20:51:41;;;;;;;;;;;7.10;99.90;;;;;;13083920;22;19926;-88
2021/03/11 20:56:43;;;;;;;;;;;7.00;99.90;;;;;;13082440;22;19929;-88
2021/03/11 21:01:45;;;;;;;;;;;7.10;99.90;;;;;;13108648;22;19923;-88
2021/03/11 21:06:46;;;;;;;;;;;7.70;99.90;;;;;;13110352;22;19946;-88
2021/03/11 21:12:02;;;;;;;;;;;7.10;99.90;;;;;;13083242;22;20612;-88
2021/03/11 21:17:04;;;;;;;;;;;7.00;99.90;;;;;;13081802;22;20254;-88
2021/03/11 21:22:06;;;;;;;;;;;7.20;99.90;;;;;;13103753;22;19923;-87
2021/03/11 21:27:07;;;;;;;;;;;7.10;99.90;;;;;;13082563;22;19986;-88
2021/03/11 21:32:09;;;;;;;;;;;7.00;99.90;;;;;;13081452;22;19922;-88
2021/03/11 21:37:11;;;;;;;;;;;7.00;99.90;;;;;;13109824;22;19922;-87
2021/03/11 21:42:23;;;;;;;;;;;7.50;99.90;;;;;;13083985;22;20017;-88
2021/03/11 21:47:25;;;;;;;;;;;7.10;99.90;;;;;;13110549;22;19997;-88
2021/03/11 21:52:26;;;;;;;;;;;7.10;99.90;;;;;;13117656;22;19958;-87
2021/03/11 21:57:27;;;;;;;;;;;7.70;99.90;;;;;;13114800;22;19993;-88
2021/03/11 22:02:29;;;;;;;;;;;7.30;99.90;;;;;;13115243;22;20379;-88
2021/03/11 22:07:30;;;;;;;;;;;7.20;99.90;;;;;;13090016;22;19968;-88
2021/03/11 22:12:46;;;;;;;;;;;7.30;99.90;;;;;;13093340;22;19964;-88
2021/03/11 22:17:48;;;;;;;;;;;7.10;99.90;;;;;;13088941;22;20304;-88
2021/03/11 22:22:50;;;;;;;;;;;7.50;99.90;;;;;;13090225;22;19923;-88
2021/03/11 22:27:52;;;;;;;;;;;7.10;99.90;;;;;;13088758;22;20250;-88
2021/03/11 22:32:53;;;;;;;;;;;7.10;99.90;;;;;;13115352;22;19923;-87
2021/03/11 22:37:55;;;;;;;;;;;7.10;99.90;;;;;;13088934;22;19919;-88
2021/03/11 22:43:12;;;;;;;;;;;7.70;99.90;;;;;;13116099;22;19922;-88
2021/03/11 22:48:13;;;;;;;;;;;7.20;99.90;;;;;;13088728;22;20255;-89
2021/03/11 22:53:15;;;;;;;;;;;7.00;99.90;;;;;;13089754;22;19918;-89
2021/03/11 22:58:16;;;;;;;;;;;7.30;99.90;;;;;;13088549;22;20399;-88
2021/03/11 23:03:18;;;;;;;;;;;6.70;99.90;;;;;;13115457;22;20271;-90
2021/03/11 23:08:19;;;;;;;;;;;5.90;99.90;;;;;;13090521;22;19925;-91
2021/03/11 23:13:33;;;;;;;;;;;6.40;99.90;;;;;;13117435;22;19926;-91
2021/03/11 23:18:35;;;;;;;;;;;6.00;99.90;;;;;;13090728;22;19950;-91
2021/03/11 23:23:39;;;;;;;;;;;6.10;99.90;;;;;;13089692;22;19962;-91
2021/03/11 23:28:41;;;;;;;;;;;6.00;99.90;;;;;;13089659;22;20303;-91
2021/03/11 23:33:42;;;;;;;;;;;6.00;99.90;;;;;;13064521;22;19929;-91
2021/03/11 23:38:43;;;;;;;;;;;6.60;99.90;;;;;;13115208;22;19998;-89
2021/03/11 23:43:56;;;;;;;;;;;6.00;99.90;;;;;;13116402;22;19922;-89
2021/03/11 23:48:57;;;;;;;;;;;6.10;99.90;;;;;;13089562;22;19965;-90
2021/03/11 23:53:59;;;;;;;;;;;6.10;99.90;;;;;;13088993;22;19929;-89
2021/03/11 23:59:00;;;;;;;;;;;6.10;99.90;;;;;;13088493;22;19918;-88
